Time;durP1;ratioP1;P1;durP2;ratioP2;P2;SDS_P1;SDS_P2;PMS_P1;PMS_P2;Temp;Humidity;BMP_temperature;BMP_pressure;BME280_temperature;BME280_humidity;BME280_pressure;Samples;Min_cycle;Max_cycle;Signal;HPM_P1;HPM_P2
2024/01/13 00:01:12;;;;;;;0.80;0.80;;;;;;;-1.17;100.00;100499.81;5079397;28;20051;-60
2024/01/13 00:03:39;;;;;;;0.80;0.80;;;;;;;-1.30;100.00;100499.19;5083511;28;20052;-60
2024/01/13 00:06:06;;;;;;;0.73;0.73;;;;;;;-1.29;100.00;100492.16;5072309;28;20179;-60
2024/01/13 00:08:33;;;;;;;0.90;0.90;;;;;;;-1.22;100.00;100491.50;5077806;28;20049;-60
2024/01/13 00:11:10;;;;;;;1.10;1.10;;;;;;;-1.24;100.00;100488.16;5097483;27;20401;-60
2024/01/13 00:13:37;;;;;;;1.00;1.00;;;;;;;-1.35;100.00;100486.47;5076244;28;20469;-60
2024/01/13 00:16:05;;;;;;;0.93;0.93;;;;;;;-1.30;100.00;100483.41;5080222;28;20449;-60
2024/01/13 00:18:32;;;;;;;0.90;0.90;;;;;;;-1.17;100.00;100477.94;5071833;28;20188;-60
2024/01/13 00:20:59;;;;;;;0.88;0.88;;;;;;;-1.12;100.00;100486.25;5076536;28;20060;-60
2024/01/13 00:23:26;;;;;;;0.98;0.98;;;;;;;-1.13;100.00;100485.38;5067956;28;20048;-60
2024/01/13 00:25:53;;;;;;;0.90;0.90;;;;;;;-1.39;100.00;100484.25;5070293;28;20044;-60
2024/01/13 00:28:21;;;;;;;0.80;0.80;;;;;;;-1.37;100.00;100480.50;5074995;28;20109;-60
2024/01/13 00:30:48;;;;;;;0.90;0.90;;;;;;;-1.30;100.00;100483.41;5072627;28;20045;-60
2024/01/13 00:33:18;;;;;;;0.80;0.80;;;;;;;-1.44;100.00;100475.94;5067639;28;20040;-60
2024/01/13 00:35:45;;;;;;;1.00;1.00;;;;;;;-1.29;100.00;100479.00;5068016;28;20102;-60
2024/01/13 00:38:12;;;;;;;0.88;0.88;;;;;;;-1.36;100.00;100476.09;5072103;28;20041;-60
2024/01/13 00:40:39;;;;;;;0.93;0.93;;;;;;;-1.42;100.00;100464.31;5070911;28;20044;-60
2024/01/13 00:43:06;;;;;;;0.80;0.80;;;;;;;-1.42;100.00;100466.94;5072076;28;20163;-60
2024/01/13 00:45:35;;;;;;;0.90;0.90;;;;;;;-1.37;100.00;100461.28;5078261;28;20132;-60
2024/01/13 00:48:02;;;;;;;1.00;1.00;;;;;;;-1.34;100.00;100455.75;5076441;28;20119;-60
2024/01/13 00:50:29;;;;;;;0.90;0.90;;;;;;;-1.32;100.00;100452.00;5063122;28;20797;-60
2024/01/13 00:52:56;;;;;;;0.90;0.90;;;;;;;-1.29;100.00;100443.00;5068125;28;20055;-60
2024/01/13 00:55:24;;;;;;;1.02;1.02;;;;;;;-1.18;100.00;100434.97;5072705;28;20172;-60
2024/01/13 00:57:51;;;;;;;1.00;1.00;;;;;;;-1.18;100.00;100439.41;5073582;28;20041;-60
2024/01/13 01:00:18;;;;;;;0.90;0.90;;;;;;;-1.20;100.00;100436.94;5067215;28;20045;-60
2024/01/13 01:02:46;;;;;;;0.85;0.85;;;;;;;-1.19;100.00;100432.50;5072743;28;20150;-60
2024/01/13 01:05:13;;;;;;;0.90;0.90;;;;;;;-1.11;100.00;100433.47;5065418;28;20048;-60
2024/01/13 01:07:40;;;;;;;0.90;0.90;;;;;;;-0.97;100.00;100431.41;5068787;28;20125;-60
2024/01/13 01:10:07;;;;;;;0.90;0.90;;;;;;;-0.84;100.00;100428.50;5069139;28;20052;-60
2024/01/13 01:12:34;;;;;;;0.80;0.80;;;;;;;-0.87;100.00;100426.97;5068984;28;20480;-60
2024/01/13 01:15:01;;;;;;;0.80;0.80;;;;;;;-0.84;100.00;100426.69;5069366;28;20049;-60
2024/01/13 01:17:29;;;;;;;0.80;0.80;;;;;;;-1.08;100.00;100425.28;5071360;28;20047;-60
2024/01/13 01:20:00;;;;;;;0.90;0.90;;;;;;;-1.06;100.00;100421.72;5065230;28;20072;-60
2024/01/13 01:22:27;;;;;;;0.88;0.88;;;;;;;-1.17;100.00;100426.13;5055593;28;20086;-60
2024/01/13 01:24:54;;;;;;;0.82;0.82;;;;;;;-0.90;100.00;100421.97;5058441;28;20053;-60
2024/01/13 01:27:21;;;;;;;0.77;0.77;;;;;;;-0.93;100.00;100425.72;5058553;28;20494;-60
2024/01/13 01:29:48;;;;;;;0.70;0.70;;;;;;;-0.98;100.00;100427.09;5052235;28;20311;-60
2024/01/13 01:32:16;;;;;;;0.70;0.70;;;;;;;-1.01;100.00;100427.38;5057444;28;20073;-60
2024/01/13 01:34:43;;;;;;;0.90;0.90;;;;;;;-0.93;100.00;100419.63;5058363;28;20483;-60
2024/01/13 01:37:11;;;;;;;0.70;0.70;;;;;;;-0.93;100.00;100415.19;5049435;28;20488;-60
2024/01/13 01:39:38;;;;;;;0.73;0.73;;;;;;;-0.89;100.00;100410.50;5049395;28;20452;-60
2024/01/13 01:42:06;;;;;;;0.80;0.80;;;;;;;-0.91;100.00;100412.41;5054366;28;20048;-60
2024/01/13 01:44:32;;;;;;;0.90;0.90;;;;;;;-0.84;100.00;100410.91;5057255;28;20504;-60
2024/01/13 01:47:00;;;;;;;0.80;0.80;;;;;;;-0.97;100.00;100415.63;5076261;28;20735;-60
2024/01/13 01:49:27;;;;;;;0.80;0.80;;;;;;;-1.06;100.00;100405.91;5060811;28;20064;-60
2024/01/13 01:51:54;;;;;;;0.77;0.77;;;;;;;-1.02;100.00;100402.03;5061690;28;20049;-60
2024/01/13 01:54:22;;;;;;;0.70;0.70;;;;;;;-1.10;100.00;100390.41;5065588;28;20052;-60
2024/01/13 01:56:49;;;;;;;0.80;0.80;;;;;;;-1.00;100.00;100379.03;5056949;28;20514;-60
2024/01/13 01:59:16;;;;;;;0.80;0.80;;;;;;;-0.89;100.00;100381.53;5056356;28;20124;-60
2024/01/13 02:01:43;;;;;;;0.70;0.70;;;;;;;-0.89;100.00;100392.06;5060406;28;20110;-60
2024/01/13 02:04:10;;;;;;;0.90;0.90;;;;;;;-0.95;100.00;100384.72;5059996;28;20487;-60
2024/01/13 02:06:38;;;;;;;0.80;0.80;;;;;;;-0.99;100.00;100373.66;5061228;28;20637;-60
2024/01/13 02:09:05;;;;;;;0.77;0.77;;;;;;;-0.97;100.00;100378.78;5059579;28;20087;-60
2024/01/13 02:11:33;;;;;;;0.80;0.80;;;;;;;-0.82;100.00;100372.09;5060840;28;20139;-60
2024/01/13 02:14:01;;;;;;;0.88;0.88;;;;;;;-0.68;100.00;100379.53;5054424;28;20055;-60
2024/01/13 02:16:28;;;;;;;0.90;0.90;;;;;;;-0.66;100.00;100369.72;5057967;28;20541;-60
2024/01/13 02:18:57;;;;;;;0.88;0.88;;;;;;;-0.63;100.00;100373.03;5054235;28;20052;-60
2024/01/13 02:21:24;;;;;;;0.70;0.70;;;;;;;-0.65;100.00;100373.16;5058269;28;20125;-60
2024/01/13 02:23:53;;;;;;;0.80;0.80;;;;;;;-0.85;100.00;100369.72;5056337;28;20109;-61
2024/01/13 02:26:20;;;;;;;0.70;0.70;;;;;;;-0.78;100.00;100368.19;5057902;28;20064;-60
2024/01/13 02:28:47;;;;;;;0.70;0.70;;;;;;;-0.76;100.00;100375.97;5060206;28;20044;-60
2024/01/13 02:31:14;;;;;;;0.70;0.70;;;;;;;-0.73;100.00;100381.78;5052787;28;20060;-60
2024/01/13 02:33:41;;;;;;;0.70;0.70;;;;;;;-0.70;100.00;100378.88;5059445;28;20078;-61
2024/01/13 02:36:08;;;;;;;0.80;0.80;;;;;;;-0.59;100.00;100384.97;5050321;28;20044;-60
2024/01/13 02:38:35;;;;;;;0.70;0.70;;;;;;;-0.61;100.00;100385.09;5056475;28;20049;-60
2024/01/13 02:41:03;;;;;;;0.82;0.82;;;;;;;-0.70;100.00;100372.75;5056039;28;20123;-60
2024/01/13 02:43:31;;;;;;;0.77;0.77;;;;;;;-0.81;100.00;100372.94;5056296;28;20049;-60
2024/01/13 02:45:58;;;;;;;0.80;0.80;;;;;;;-0.70;100.00;100376.25;5056473;28;20080;-60
2024/01/13 02:48:25;;;;;;;0.80;0.80;;;;;;;-0.69;100.00;100380.53;5052768;28;20139;-60
2024/01/13 02:50:56;;;;;;;0.70;0.70;;;;;;;-0.63;100.00;100378.31;5057855;28;20047;-60
2024/01/13 02:53:23;;;;;;;0.70;0.70;;;;;;;-0.69;100.00;100370.00;5052843;28;20793;-60
2024/01/13 02:55:50;;;;;;;0.60;0.60;;;;;;;-0.75;100.00;100361.81;5059181;28;20048;-60
2024/01/13 02:58:18;;;;;;;0.75;0.75;;;;;;;-0.78;100.00;100362.94;5054089;28;20129;-60
2024/01/13 03:00:45;;;;;;;0.73;0.73;;;;;;;-0.73;100.00;100359.88;5052947;28;20506;-60
2024/01/13 03:03:12;;;;;;;0.80;0.80;;;;;;;-0.66;100.00;100361.81;5054225;28;20124;-60
2024/01/13 03:05:39;;;;;;;0.80;0.80;;;;;;;-0.55;100.00;100357.34;5057536;28;20123;-60
2024/01/13 03:08:06;;;;;;;0.80;0.80;;;;;;;-0.52;100.00;100360.53;5052702;28;20134;-60
2024/01/13 03:10:33;;;;;;;0.70;0.70;;;;;;;-0.45;100.00;100355.50;5056199;28;20060;-60
2024/01/13 03:13:01;;;;;;;0.60;0.60;;;;;;;-0.57;100.00;100340.88;5056805;28;20128;-60
2024/01/13 03:15:29;;;;;;;0.60;0.60;;;;;;;-0.48;100.00;100347.91;5053993;28;20075;-60
2024/01/13 03:17:56;;;;;;;0.60;0.60;;;;;;;-0.42;100.00;100352.59;5058292;28;20069;-60
2024/01/13 03:20:23;;;;;;;0.70;0.70;;;;;;;-0.36;100.00;100352.03;5048533;28;20164;-60
2024/01/13 03:22:50;;;;;;;0.88;0.88;;;;;;;-0.32;100.00;100348.13;5057872;28;20060;-60
2024/01/13 03:25:18;;;;;;;0.70;0.70;;;;;;;-0.29;100.00;100342.56;5059472;28;20453;-60
2024/01/13 03:27:45;;;;;;;0.82;0.82;;;;;;;-0.36;100.00;100341.47;5061950;28;20072;-60
2024/01/13 03:30:13;;;;;;;0.65;0.65;;;;;;;-0.24;100.00;100335.06;5057003;28;20049;-60
2024/01/13 03:32:41;;;;;;;0.70;0.70;;;;;;;-0.24;100.00;100329.78;5049508;28;20052;-60
2024/01/13 03:35:09;;;;;;;0.70;0.70;;;;;;;-0.23;100.00;100313.00;5049387;28;20060;-60
2024/01/13 03:37:36;;;;;;;0.60;0.60;;;;;;;-0.26;100.00;100315.91;5057123;28;20041;-60
2024/01/13 03:40:03;;;;;;;0.50;0.50;;;;;;;-0.22;100.00;100325.22;5052354;28;20053;-60
2024/01/13 03:42:30;;;;;;;0.80;0.80;;;;;;;-0.20;100.00;100327.72;5052696;28;20040;-60
2024/01/13 03:44:57;;;;;;;0.70;0.70;;;;;;;-0.16;100.00;100322.97;5053080;28;20048;-60
2024/01/13 03:47:24;;;;;;;0.70;0.70;;;;;;;-0.09;100.00;100310.88;5052218;28;20131;-60
2024/01/13 03:49:52;;;;;;;0.70;0.70;;;;;;;-0.12;100.00;100314.63;5052155;28;20056;-59
2024/01/13 03:52:19;;;;;;;0.70;0.70;;;;;;;-0.07;100.00;100308.91;5051587;28;20048;-60
2024/01/13 03:54:47;;;;;;;0.70;0.70;;;;;;;-0.08;100.00;100309.88;5053089;28;20055;-60
2024/01/13 03:57:14;;;;;;;0.70;0.70;;;;;;;-0.08;100.00;100304.59;5049164;28;20161;-60
2024/01/13 03:59:41;;;;;;;0.73;0.73;;;;;;;-0.05;100.00;100313.06;5047978;28;20347;-60
2024/01/13 04:02:09;;;;;;;0.70;0.70;;;;;;;-0.15;100.00;100298.25;5052644;28;20056;-61
2024/01/13 04:04:35;;;;;;;0.60;0.60;;;;;;;-0.12;100.00;100295.34;5051643;28;20773;-61
2024/01/13 04:07:04;;;;;;;0.63;0.63;;;;;;;-0.09;100.00;100289.78;5056383;28;20476;-61
2024/01/13 04:09:31;;;;;;;0.80;0.80;;;;;;;0.00;100.00;100294.19;5052144;28;20414;-60
2024/01/13 04:11:58;;;;;;;0.70;0.70;;;;;;;-0.07;100.00;100293.09;5042610;28;20154;-60
2024/01/13 04:14:25;;;;;;;0.68;0.68;;;;;;;-0.05;100.00;100297.25;5054118;28;20194;-61
2024/01/13 04:16:52;;;;;;;0.60;0.60;;;;;;;-0.05;100.00;100286.72;5055299;28;20041;-60
2024/01/13 04:19:19;;;;;;;0.70;0.70;;;;;;;-0.01;100.00;100292.50;5047090;28;20069;-61
2024/01/13 04:21:47;;;;;;;0.70;0.70;;;;;;;0.05;100.00;100291.06;5051150;28;20053;-60
2024/01/13 04:24:15;;;;;;;0.70;0.70;;;;;;;-0.06;100.00;100286.84;5063163;28;20578;-60
2024/01/13 04:26:43;;;;;;;0.70;0.70;;;;;;;-0.10;100.00;100282.84;5058751;28;20044;-60
2024/01/13 04:29:10;;;;;;;0.70;0.70;;;;;;;-0.04;100.00;100290.16;5045837;28;20061;-59
2024/01/13 04:31:37;;;;;;;0.80;0.80;;;;;;;-0.12;100.00;100288.28;5055720;28;20093;-61
2024/01/13 04:34:04;;;;;;;0.70;0.70;;;;;;;-0.04;100.00;100279.63;5047516;28;20044;-60
2024/01/13 04:36:31;;;;;;;0.80;0.80;;;;;;;-0.02;100.00;100277.66;5056062;28;20041;-60
2024/01/13 04:38:58;;;;;;;0.68;0.68;;;;;;;-0.03;100.00;100273.38;5049911;28;20824;-60
2024/01/13 04:41:27;;;;;;;0.60;0.60;;;;;;;0.02;100.00;100276.38;5046822;28;20079;-60
2024/01/13 04:43:54;;;;;;;0.70;0.70;;;;;;;-0.02;100.00;100275.88;5055952;28;20113;-60
2024/01/13 04:46:21;;;;;;;0.60;0.60;;;;;;;-0.02;100.00;100275.88;5064076;28;20128;-60
2024/01/13 04:48:48;;;;;;;0.77;0.77;;;;;;;-0.01;100.00;100272.22;5054415;28;20467;-60
2024/01/13 04:51:16;;;;;;;0.60;0.60;;;;;;;-0.03;100.00;100270.72;5053113;28;20103;-60
2024/01/13 04:53:43;;;;;;;0.80;0.80;;;;;;;0.05;100.00;100270.84;5050401;28;20056;-60
2024/01/13 04:56:10;;;;;;;0.55;0.55;;;;;;;0.07;100.00;100271.50;5048073;28;20049;-60
2024/01/13 04:58:39;;;;;;;0.70;0.70;;;;;;;0.03;100.00;100271.97;5055905;28;20179;-60
2024/01/13 05:01:06;;;;;;;0.70;0.70;;;;;;;0.02;100.00;100263.19;5050025;28;20642;-63
2024/01/13 05:03:33;;;;;;;0.63;0.63;;;;;;;0.02;100.00;100263.19;5052382;28;20045;-60
2024/01/13 05:06:00;;;;;;;0.70;0.70;;;;;;;0.07;100.00;100258.31;5058910;28;20056;-60
2024/01/13 05:08:27;;;;;;;0.60;0.60;;;;;;;0.07;100.00;100258.31;5058419;28;20620;-60
2024/01/13 05:10:54;;;;;;;0.60;0.60;;;;;;;0.02;100.00;100252.66;5061498;28;20055;-60
2024/01/13 05:13:21;;;;;;;0.60;0.60;;;;;;;0.09;100.00;100253.72;5058718;28;20132;-60
2024/01/13 05:15:50;;;;;;;0.60;0.60;;;;;;;0.09;100.00;100264.25;5061554;28;20065;-60
2024/01/13 05:18:17;;;;;;;0.90;0.90;;;;;;;0.02;100.00;100254.47;5057087;28;20056;-60
2024/01/13 05:20:45;;;;;;;0.70;0.70;;;;;;;0.00;100.00;100246.72;5056693;28;20158;-60
2024/01/13 05:23:12;;;;;;;0.60;0.60;;;;;;;0.00;100.00;100244.09;5058794;28;20289;-60
2024/01/13 05:25:39;;;;;;;0.80;0.80;;;;;;;0.03;100.00;100241.16;5058456;28;20047;-60
2024/01/13 05:28:06;;;;;;;0.77;0.77;;;;;;;-0.07;100.00;100241.22;5057309;28;20051;-60
2024/01/13 05:30:33;;;;;;;0.70;0.70;;;;;;;-0.14;100.00;100234.06;5061246;28;20102;-60
2024/01/13 05:33:02;;;;;;;0.60;0.60;;;;;;;-0.14;100.00;100229.59;5053014;28;20135;-60
2024/01/13 05:35:29;;;;;;;0.70;0.70;;;;;;;-0.10;100.00;100232.75;5055467;28;20040;-60
2024/01/13 05:37:56;;;;;;;0.70;0.70;;;;;;;-0.16;100.00;100230.72;5060915;28;20088;-60
2024/01/13 05:40:25;;;;;;;0.70;0.70;;;;;;;-0.15;100.00;100224.47;5065719;28;20052;-60
2024/01/13 05:42:52;;;;;;;0.70;0.70;;;;;;;-0.18;100.00;100224.78;5051661;28;20049;-60
2024/01/13 05:45:19;;;;;;;0.80;0.80;;;;;;;-0.17;100.00;100221.19;5062337;28;20542;-60
2024/01/13 05:47:46;;;;;;;0.70;0.70;;;;;;;-0.15;100.00;100211.28;5065095;28;20047;-60
2024/01/13 05:50:14;;;;;;;0.70;0.70;;;;;;;-0.11;100.00;100217.94;5048831;28;20479;-60
2024/01/13 05:52:41;;;;;;;0.50;0.50;;;;;;;-0.10;100.00;100214.31;5065537;28;20826;-60
2024/01/13 05:55:09;;;;;;;0.70;0.70;;;;;;;-0.10;100.00;100219.59;5056130;28;20078;-60
2024/01/13 05:57:35;;;;;;;0.90;0.90;;;;;;;-0.09;100.00;100216.00;5054808;28;20132;-60
2024/01/13 06:00:03;;;;;;;0.70;0.70;;;;;;;-0.09;100.00;100211.53;5058750;28;20045;-60
2024/01/13 06:02:35;;;;;;;0.70;0.70;;;;;;;-0.11;100.00;100216.13;5056063;28;20123;-60
2024/01/13 06:05:02;;;;;;;0.70;0.70;;;;;;;-0.11;100.00;100212.66;5059272;28;20068;-60
2024/01/13 06:07:30;;;;;;;0.65;0.65;;;;;;;-0.10;100.00;100214.31;5061016;28;20556;-60
2024/01/13 06:09:57;;;;;;;0.70;0.70;;;;;;;-0.07;100.00;100198.22;5052108;28;20095;-60
2024/01/13 06:12:26;;;;;;;0.70;0.70;;;;;;;-0.08;100.00;100207.91;5054025;28;20079;-60
2024/01/13 06:14:53;;;;;;;0.80;0.80;;;;;;;-0.14;100.00;100197.97;5061020;28;20041;-60
2024/01/13 06:17:20;;;;;;;0.80;0.80;;;;;;;-0.18;100.00;100206.34;5054629;28;20067;-60
2024/01/13 06:19:47;;;;;;;0.68;0.68;;;;;;;-0.22;100.00;100200.53;5056036;28;20502;-60
2024/01/13 06:22:14;;;;;;;0.75;0.75;;;;;;;-0.25;100.00;100195.53;5051519;28;20127;-60
2024/01/13 06:24:43;;;;;;;0.70;0.70;;;;;;;-0.24;100.00;100202.50;5055060;28;20415;-60
2024/01/13 06:27:10;;;;;;;0.60;0.60;;;;;;;-0.26;100.00;100199.19;5050267;28;20435;-59
2024/01/13 06:29:37;;;;;;;0.80;0.80;;;;;;;-0.27;100.00;100202.78;5054906;28;20056;-60
2024/01/13 06:32:04;;;;;;;0.70;0.70;;;;;;;-0.28;100.00;100206.38;5049846;28;20480;-59
2024/01/13 06:34:31;;;;;;;0.68;0.68;;;;;;;-0.27;100.00;100203.63;5054200;28;20123;-59
2024/01/13 06:36:58;;;;;;;0.70;0.70;;;;;;;-0.23;100.00;100210.22;5055409;28;20444;-59
2024/01/13 06:39:25;;;;;;;0.60;0.60;;;;;;;-0.31;100.00;100196.97;5057302;28;20072;-60
2024/01/13 06:41:54;;;;;;;0.70;0.70;;;;;;;-0.30;100.00;100198.66;5058831;28;20116;-59
2024/01/13 06:44:21;;;;;;;0.80;0.80;;;;;;;-0.34;100.00;100199.91;5052796;28;20134;-60
2024/01/13 06:46:47;;;;;;;0.70;0.70;;;;;;;-0.33;100.00;100201.56;5053831;28;20047;-59
2024/01/13 06:49:14;;;;;;;0.70;0.70;;;;;;;-0.36;100.00;100204.50;5051046;28;20120;-60
2024/01/13 06:51:41;;;;;;;0.70;0.70;;;;;;;-0.39;100.00;100204.81;5051226;28;20062;-59
2024/01/13 06:54:09;;;;;;;0.60;0.60;;;;;;;-0.35;100.00;100208.81;5053690;28;20959;-60
2024/01/13 06:56:37;;;;;;;0.52;0.52;;;;;;;-0.35;100.00;100200.91;5055496;28;20083;-60
2024/01/13 06:59:05;;;;;;;0.60;0.60;;;;;;;-0.34;100.00;100202.56;5054581;28;20048;-59
2024/01/13 07:01:32;;;;;;;0.90;0.90;;;;;;;-0.34;100.00;100207.81;5059459;28;20076;-59
2024/01/13 07:03:59;;;;;;;0.75;0.75;;;;;;;-0.27;100.00;100205.44;5060331;28;20044;-59
2024/01/13 07:06:26;;;;;;;0.88;0.88;;;;;;;-0.34;100.00;100202.56;5051874;28;20064;-61
2024/01/13 07:08:56;;;;;;;0.80;0.80;;;;;;;-0.35;100.00;100211.44;5058400;28;20506;-60
2024/01/13 07:11:23;;;;;;;0.70;0.70;;;;;;;-0.36;100.00;100204.50;5054740;28;20474;-60
2024/01/13 07:13:50;;;;;;;0.80;0.80;;;;;;;-0.32;100.00;100207.69;5059985;28;20052;-60
2024/01/13 07:16:18;;;;;;;0.77;0.77;;;;;;;-0.27;100.00;100211.53;5055631;28;20045;-59
2024/01/13 07:18:45;;;;;;;0.70;0.70;;;;;;;-0.34;100.00;100201.72;5048877;28;20072;-59
2024/01/13 07:21:12;;;;;;;0.80;0.80;;;;;;;-0.41;100.00;100211.19;5053292;28;20040;-60
2024/01/13 07:23:41;;;;;;;0.70;0.70;;;;;;;-0.35;100.00;100218.50;5053989;28;20152;-59
2024/01/13 07:26:08;;;;;;;0.70;0.70;;;;;;;-0.32;100.00;100223.50;5053342;28;20060;-59
2024/01/13 07:28:35;;;;;;;0.70;0.70;;;;;;;-0.31;100.00;100228.59;5057510;28;20049;-59
2024/01/13 07:31:02;;;;;;;0.80;0.80;;;;;;;-0.33;100.00;100225.28;5054601;28;20047;-60
2024/01/13 07:33:31;;;;;;;0.75;0.75;;;;;;;-0.35;100.00;100221.97;5056419;28;20041;-59
2024/01/13 07:36:00;;;;;;;0.73;0.73;;;;;;;-0.36;100.00;100228.22;5058976;28;20056;-59
2024/01/13 07:38:28;;;;;;;0.80;0.80;;;;;;;-0.37;100.00;100218.66;5049284;28;20132;-60
2024/01/13 07:40:56;;;;;;;0.73;0.73;;;;;;;-0.39;100.00;100217.16;5047497;28;20041;-59
2024/01/13 07:43:24;;;;;;;0.80;0.80;;;;;;;-0.33;100.00;100216.53;5051895;28;20156;-60
2024/01/13 07:45:51;;;;;;;0.70;0.70;;;;;;;-0.34;100.00;100218.34;5052016;28;20146;-59
2024/01/13 07:48:18;;;;;;;0.70;0.70;;;;;;;-0.38;100.00;100222.25;5051316;28;20064;-59
2024/01/13 07:50:46;;;;;;;0.70;0.70;;;;;;;-0.41;100.00;100205.94;5046949;28;20610;-60
2024/01/13 07:53:13;;;;;;;0.70;0.70;;;;;;;-0.36;100.00;100201.03;5051729;28;20049;-60
2024/01/13 07:55:41;;;;;;;0.80;0.80;;;;;;;-0.39;100.00;100199.53;5052278;28;20094;-60
2024/01/13 07:58:08;;;;;;;0.70;0.70;;;;;;;-0.46;100.00;100199.28;5050429;28;20047;-60
2024/01/13 08:00:35;;;;;;;0.70;0.70;;;;;;;-0.45;100.00;100198.31;5057370;28;20048;-60
2024/01/13 08:03:04;;;;;;;0.73;0.73;;;;;;;-0.38;100.00;100201.19;5054917;28;20084;-60
2024/01/13 08:05:31;;;;;;;0.68;0.68;;;;;;;-0.34;100.00;100196.47;5055652;28;20076;-59
2024/01/13 08:08:01;;;;;;;0.70;0.70;;;;;;;-0.29;100.00;100188.94;5059490;28;20055;-60
2024/01/13 08:10:28;;;;;;;0.73;0.73;;;;;;;-0.39;100.00;100178.47;5048544;28;20576;-61
2024/01/13 08:12:55;;;;;;;0.60;0.60;;;;;;;-0.38;100.00;100185.38;5054186;28;20040;-60
2024/01/13 08:15:22;;;;;;;0.68;0.68;;;;;;;-0.36;100.00;100167.63;5054812;28;20041;-60
2024/01/13 08:17:49;;;;;;;0.77;0.77;;;;;;;-0.33;100.00;100169.94;5055576;28;20443;-60
2024/01/13 08:20:18;;;;;;;0.70;0.70;;;;;;;-0.30;100.00;100172.31;5051734;28;20049;-60
2024/01/13 08:22:46;;;;;;;0.60;0.60;;;;;;;-0.30;100.00;100179.34;5045885;28;20491;-60
2024/01/13 08:25:14;;;;;;;0.80;0.80;;;;;;;-0.27;100.00;100177.28;5045636;28;20131;-59
2024/01/13 08:27:41;;;;;;;0.60;0.60;;;;;;;-0.26;100.00;100173.66;5053247;28;20109;-60
2024/01/13 08:30:09;;;;;;;0.60;0.60;;;;;;;-0.24;100.00;100176.16;5051010;28;20881;-60
2024/01/13 08:32:36;;;;;;;0.73;0.73;;;;;;;-0.30;100.00;100172.31;5053311;28;20131;-60
2024/01/13 08:35:03;;;;;;;0.80;0.80;;;;;;;-0.24;100.00;100160.34;5049525;28;20539;-58
2024/01/13 08:37:31;;;;;;;0.70;0.70;;;;;;;-0.34;100.00;100155.13;5053101;28;20771;-59
2024/01/13 08:39:57;;;;;;;0.80;0.80;;;;;;;-0.03;100.00;100152.13;5049445;28;20447;-60
2024/01/13 08:42:26;;;;;;;0.73;0.73;;;;;;;-0.28;100.00;100154.53;5053631;28;20077;-59
2024/01/13 08:44:53;;;;;;;0.70;0.70;;;;;;;-0.24;100.00;100145.34;5056936;28;20588;-60
2024/01/13 08:47:20;;;;;;;0.80;0.80;;;;;;;-0.40;100.00;100146.97;5055140;28;20057;-60
2024/01/13 08:49:48;;;;;;;0.80;0.80;;;;;;;-0.29;100.00;100150.25;5056581;28;20068;-58
2024/01/13 08:52:15;;;;;;;0.70;0.70;;;;;;;-0.17;100.00;100150.03;5053147;28;20055;-61
2024/01/13 08:54:42;;;;;;;0.70;0.70;;;;;;;-0.16;100.00;100157.78;5063129;28;20144;-60
2024/01/13 08:57:09;;;;;;;0.80;0.80;;;;;;;-0.23;100.00;100139.09;5047135;28;20061;-60
2024/01/13 08:59:38;;;;;;;0.80;0.80;;;;;;;-0.28;100.00;100122.91;5054758;28;20132;-60
2024/01/13 09:02:06;;;;;;;0.80;0.80;;;;;;;-0.20;100.00;100131.88;5060625;28;20045;-60
2024/01/13 09:04:33;;;;;;;0.80;0.80;;;;;;;-0.30;100.00;100118.75;5060827;28;20140;-60
2024/01/13 09:07:01;;;;;;;0.60;0.60;;;;;;;-0.35;100.00;100105.22;5055557;28;20068;-60
2024/01/13 09:09:28;;;;;;;0.82;0.82;;;;;;;-0.33;100.00;100098.81;5054181;28;20040;-60
2024/01/13 09:11:55;;;;;;;0.90;0.90;;;;;;;-0.43;100.00;100077.00;5058397;28;20121;-60
2024/01/13 09:14:21;;;;;;;1.00;1.00;;;;;;;-0.32;100.00;100082.06;5055183;28;20151;-60
2024/01/13 09:16:50;;;;;;;0.77;0.77;;;;;;;-0.26;100.00;100105.16;5058337;28;20123;-60
2024/01/13 09:19:17;;;;;;;0.70;0.70;;;;;;;-0.35;100.00;100106.06;5052951;28;20065;-60
2024/01/13 09:21:44;;;;;;;0.70;0.70;;;;;;;-0.36;100.00;100124.66;5054709;28;20120;-60
2024/01/13 09:24:11;;;;;;;0.80;0.80;;;;;;;-0.37;100.00;100117.75;5054047;28;20041;-60
2024/01/13 09:26:40;;;;;;;0.70;0.70;;;;;;;-0.44;100.00;100099.88;5051430;28;20043;-60
2024/01/13 09:29:07;;;;;;;0.70;0.70;;;;;;;-0.32;100.00;100097.03;5056844;28;20049;-60
2024/01/13 09:31:34;;;;;;;0.70;0.70;;;;;;;-0.37;100.00;100097.50;5056420;28;20393;-60
2024/01/13 09:34:06;;;;;;;0.90;0.90;;;;;;;-0.20;100.00;100097.63;5059266;28;20134;-60
2024/01/13 09:36:34;;;;;;;0.80;0.80;;;;;;;-0.24;100.00;100103.19;5055165;28;20044;-60
2024/01/13 09:39:01;;;;;;;0.90;0.90;;;;;;;-0.23;100.00;100114.56;5053792;28;20098;-60
2024/01/13 09:41:29;;;;;;;0.88;0.88;;;;;;;0.02;100.00;100110.31;5056076;28;20159;-60
2024/01/13 09:44:00;;;;;;;0.70;0.70;;;;;;;-0.01;100.00;100100.09;5062980;28;20456;-60
2024/01/13 09:46:27;;;;;;;0.70;0.70;;;;;;;0.17;100.00;100098.25;5062955;28;20588;-60
2024/01/13 09:48:55;;;;;;;0.88;0.88;;;;;;;-0.15;100.00;100088.28;5055627;28;20055;-60
2024/01/13 09:51:23;;;;;;;0.90;0.90;;;;;;;-0.11;100.00;100091.44;5057887;28;20066;-60
2024/01/13 09:53:53;;;;;;;0.80;0.80;;;;;;;0.11;100.00;100096.22;5055684;28;20139;-59
2024/01/13 09:56:23;;;;;;;0.98;0.98;;;;;;;0.07;100.00;100108.06;5058050;28;20036;-59
2024/01/13 09:58:50;;;;;;;0.80;0.80;;;;;;;-0.01;100.00;100095.63;5059583;28;20506;-59
2024/01/13 10:01:17;;;;;;;0.80;0.80;;;;;;;0.02;100.00;100075.22;5056687;28;20517;-59
2024/01/13 10:03:45;;;;;;;0.80;0.80;;;;;;;-0.01;100.00;100068.47;5058981;28;20491;-59
2024/01/13 10:06:12;;;;;;;0.77;0.77;;;;;;;0.06;100.00;100063.41;5053065;28;20495;-58
2024/01/13 10:08:42;;;;;;;0.80;0.80;;;;;;;-0.12;100.00;100055.53;5057724;28;20036;-59
2024/01/13 10:11:09;;;;;;;0.88;0.88;;;;;;;-0.16;100.00;100046.28;5049234;28;20059;-58
2024/01/13 10:13:37;;;;;;;0.80;0.80;;;;;;;-0.04;100.00;100034.50;5064818;28;20045;-61
2024/01/13 10:16:04;;;;;;;0.80;0.80;;;;;;;0.10;100.00;100036.59;5055068;28;20403;-61
2024/01/13 10:18:32;;;;;;;0.70;0.70;;;;;;;0.03;100.00;100022.38;5058828;28;20048;-61
2024/01/13 10:20:59;;;;;;;0.70;0.70;;;;;;;0.07;100.00;100012.34;5051046;28;20655;-60
2024/01/13 10:23:26;;;;;;;0.90;0.90;;;;;;;0.00;100.00;100046.41;5056742;28;20082;-60
2024/01/13 10:25:56;;;;;;;0.68;0.68;;;;;;;0.03;100.00;100048.72;5057840;28;20068;-60
2024/01/13 10:28:24;;;;;;;0.70;0.70;;;;;;;0.08;100.00;100057.00;5059915;28;20044;-60
2024/01/13 10:30:51;;;;;;;0.70;0.70;;;;;;;0.11;100.00;100059.31;5049391;28;20041;-60
2024/01/13 10:33:18;;;;;;;0.80;0.80;;;;;;;0.04;100.00;100049.56;5054433;28;20641;-58
2024/01/13 10:35:45;;;;;;;0.80;0.80;;;;;;;-0.06;100.00;100079.47;5060683;28;20131;-61
2024/01/13 10:38:12;;;;;;;0.88;0.88;;;;;;;0.05;100.00;100065.22;5052912;28;20497;-58
2024/01/13 10:40:41;;;;;;;0.80;0.80;;;;;;;0.00;100.00;100070.13;5049533;28;20051;-61
2024/01/13 10:43:11;;;;;;;0.90;0.90;;;;;;;0.01;100.00;100073.59;5056279;28;20767;-59
2024/01/13 10:45:38;;;;;;;0.90;0.90;;;;;;;0.05;100.00;100081.03;5055263;28;20175;-58
2024/01/13 10:48:07;;;;;;;0.80;0.80;;;;;;;0.10;100.00;100065.59;5066975;28;20051;-58
2024/01/13 10:50:36;;;;;;;0.80;0.80;;;;;;;0.19;100.00;100067.28;5049872;28;20094;-59
2024/01/13 10:53:07;;;;;;;0.80;0.80;;;;;;;-0.04;100.00;100051.16;5052395;28;20140;-59
2024/01/13 10:55:34;;;;;;;0.82;0.82;;;;;;;0.17;100.00;100061.31;5056257;28;20052;-59
2024/01/13 10:58:01;;;;;;;0.88;0.88;;;;;;;0.28;100.00;100054.16;5054637;28;20429;-59
2024/01/13 11:00:29;;;;;;;0.60;0.60;;;;;;;0.29;100.00;100055.81;5048283;28;20041;-59
2024/01/13 11:02:57;;;;;;;0.70;0.70;;;;;;;0.23;100.00;100052.00;5054146;28;20056;-61
2024/01/13 11:05:24;;;;;;;0.80;0.80;;;;;;;0.29;100.00;100045.25;5050789;28;20055;-61
2024/01/13 11:07:51;;;;;;;0.65;0.65;;;;;;;0.37;100.00;100048.75;5059058;28;20040;-60
2024/01/13 11:10:21;;;;;;;0.70;0.70;;;;;;;0.39;100.00;100038.88;5053026;28;20325;-60
2024/01/13 11:12:51;;;;;;;0.60;0.60;;;;;;;0.37;100.00;100042.66;5052377;28;20056;-58
2024/01/13 11:15:22;;;;;;;0.80;0.80;;;;;;;0.35;100.00;100028.81;5053369;28;20455;-61
2024/01/13 11:17:50;;;;;;;0.70;0.70;;;;;;;0.39;100.00;100020.44;5054479;28;20079;-60
2024/01/13 11:20:18;;;;;;;0.80;0.80;;;;;;;0.44;100.00;100006.78;5054653;28;20048;-61